sensor_id;sensor_type;location;lat;lon;timestamp;temperature;humidity
2212;DHT22;48849;48.758;9.158;2023-04-29T00:01:52;15.10;99.90
2212;DHT22;48849;48.758;9.158;2023-04-29T00:07:42;15.10;99.90
2212;DHT22;48849;48.758;9.158;2023-04-29T00:10:34;15.10;99.90
2212;DHT22;48849;48.758;9.158;2023-04-29T00:17:17;15.00;99.90
2212;DHT22;48849;48.758;9.158;2023-04-29T00:20:17;15.00;99.90
2212;DHT22;48849;48.758;9.158;2023-04-29T00:22:47;15.00;99.90
2212;DHT22;48849;48.758;9.158;2023-04-29T00:25:46;15.00;99.90
2212;DHT22;48849;48.758;9.158;2023-04-29T00:28:27;15.00;99.90
2212;DHT22;48849;48.758;9.158;2023-04-29T00:31:07;14.90;99.90
2212;DHT22;48849;48.758;9.158;2023-04-29T00:33:39;15.00;99.90
2212;DHT22;48849;48.758;9.158;2023-04-29T00:36:15;14.90;99.90
2212;DHT22;48849;48.758;9.158;2023-04-29T00:38:49;14.90;99.90
2212;DHT22;48849;48.758;9.158;2023-04-29T00:41:27;14.90;99.90
2212;DHT22;48849;48.758;9.158;2023-04-29T00:43:59;15.00;99.90
2212;DHT22;48849;48.758;9.158;2023-04-29T00:46:37;15.00;99.90
2212;DHT22;48849;48.758;9.158;2023-04-29T00:49:15;15.00;99.90
2212;DHT22;48849;48.758;9.158;2023-04-29T00:52:01;15.00;99.90
2212;DHT22;48849;48.758;9.158;2023-04-29T00:54:54;15.00;99.90
2212;DHT22;48849;48.758;9.158;2023-04-29T00:57:40;14.80;99.90
2212;DHT22;48849;48.758;9.158;2023-04-29T01:00:08;14.90;99.90
2212;DHT22;48849;48.758;9.158;2023-04-29T01:02:50;14.90;99.90
2212;DHT22;48849;48.758;9.158;2023-04-29T01:05:29;15.00;99.90
2212;DHT22;48849;48.758;9.158;2023-04-29T01:08:12;14.90;99.90
2212;DHT22;48849;48.758;9.158;2023-04-29T01:10:58;14.90;99.90
2212;DHT22;48849;48.758;9.158;2023-04-29T01:13:42;14.90;99.90
2212;DHT22;48849;48.758;9.158;2023-04-29T01:16:29;14.90;99.90
2212;DHT22;48849;48.758;9.158;2023-04-29T01:19:15;14.90;99.90
2212;DHT22;48849;48.758;9.158;2023-04-29T01:21:56;14.80;99.90
2212;DHT22;48849;48.758;9.158;2023-04-29T01:24:32;14.90;99.90
2212;DHT22;48849;48.758;9.158;2023-04-29T01:27:16;14.90;99.90
2212;DHT22;48849;48.758;9.158;2023-04-29T01:30:15;15.00;99.90
2212;DHT22;48849;48.758;9.158;2023-04-29T01:32:52;14.80;99.90
2212;DHT22;48849;48.758;9.158;2023-04-29T01:35:46;14.80;99.90
2212;DHT22;48849;48.758;9.158;2023-04-29T01:38:29;14.80;99.90
2212;DHT22;48849;48.758;9.158;2023-04-29T01:41:15;14.80;99.90
2212;DHT22;48849;48.758;9.158;2023-04-29T01:43:51;14.80;99.90
2212;DHT22;48849;48.758;9.158;2023-04-29T01:49:26;14.80;99.90
2212;DHT22;48849;48.758;9.158;2023-04-29T01:52:07;14.90;99.90
2212;DHT22;48849;48.758;9.158;2023-04-29T01:54:38;14.80;99.90
2212;DHT22;48849;48.758;9.158;2023-04-29T01:57:17;14.80;99.90
2212;DHT22;48849;48.758;9.158;2023-04-29T01:59:53;14.80;99.90
2212;DHT22;48849;48.758;9.158;2023-04-29T02:02:22;14.80;99.90
2212;DHT22;48849;48.758;9.158;2023-04-29T02:05:03;14.70;99.90
2212;DHT22;48849;48.758;9.158;2023-04-29T02:07:42;14.80;99.90
2212;DHT22;48849;48.758;9.158;2023-04-29T02:10:13;14.80;99.90
2212;DHT22;48849;48.758;9.158;2023-04-29T02:12:46;14.70;99.90
2212;DHT22;48849;48.758;9.158;2023-04-29T02:15:26;14.80;99.90
2212;DHT22;48849;48.758;9.158;2023-04-29T02:18:03;14.70;99.90
2212;DHT22;48849;48.758;9.158;2023-04-29T02:20:37;14.70;99.90
2212;DHT22;48849;48.758;9.158;2023-04-29T02:23:16;14.70;99.90
2212;DHT22;48849;48.758;9.158;2023-04-29T02:25:47;14.70;99.90
2212;DHT22;48849;48.758;9.158;2023-04-29T02:28:26;14.70;99.90
2212;DHT22;48849;48.758;9.158;2023-04-29T02:31:00;14.60;99.90
2212;DHT22;48849;48.758;9.158;2023-04-29T02:33:41;14.70;99.90
2212;DHT22;48849;48.758;9.158;2023-04-29T02:36:13;14.60;99.90
2212;DHT22;48849;48.758;9.158;2023-04-29T02:38:52;14.60;99.90
2212;DHT22;48849;48.758;9.158;2023-04-29T02:41:26;14.50;99.90
2212;DHT22;48849;48.758;9.158;2023-04-29T02:44:18;14.60;99.90
2212;DHT22;48849;48.758;9.158;2023-04-29T02:47:07;14.50;99.90
2212;DHT22;48849;48.758;9.158;2023-04-29T02:49:36;14.50;99.90
2212;DHT22;48849;48.758;9.158;2023-04-29T02:52:10;14.60;99.90
2212;DHT22;48849;48.758;9.158;2023-04-29T02:54:51;14.50;99.90
2212;DHT22;48849;48.758;9.158;2023-04-29T02:57:21;14.50;99.90
2212;DHT22;48849;48.758;9.158;2023-04-29T03:00:11;14.50;99.90
2212;DHT22;48849;48.758;9.158;2023-04-29T03:03:02;14.50;99.90
2212;DHT22;48849;48.758;9.158;2023-04-29T03:05:40;14.50;99.90
2212;DHT22;48849;48.758;9.158;2023-04-29T03:08:18;14.50;99.90
2212;DHT22;48849;48.758;9.158;2023-04-29T03:10:56;14.50;99.90
2212;DHT22;48849;48.758;9.158;2023-04-29T03:13:29;14.60;99.90
2212;DHT22;48849;48.758;9.158;2023-04-29T03:16:06;14.50;99.90
2212;DHT22;48849;48.758;9.158;2023-04-29T03:18:43;14.50;99.90
2212;DHT22;48849;48.758;9.158;2023-04-29T03:21:32;14.40;99.90
2212;DHT22;48849;48.758;9.158;2023-04-29T03:24:16;14.50;99.90
2212;DHT22;48849;48.758;9.158;2023-04-29T03:26:53;14.50;99.90
2212;DHT22;48849;48.758;9.158;2023-04-29T03:29:31;14.40;99.90
2212;DHT22;48849;48.758;9.158;2023-04-29T03:32:10;14.40;99.90
2212;DHT22;48849;48.758;9.158;2023-04-29T03:34:43;14.40;99.90
2212;DHT22;48849;48.758;9.158;2023-04-29T03:37:24;14.40;99.90
2212;DHT22;48849;48.758;9.158;2023-04-29T03:39:56;14.40;99.90
2212;DHT22;48849;48.758;9.158;2023-04-29T03:42:36;14.40;99.90
2212;DHT22;48849;48.758;9.158;2023-04-29T03:45:20;14.40;99.90
2212;DHT22;48849;48.758;9.158;2023-04-29T03:48:12;14.30;99.90
2212;DHT22;48849;48.758;9.158;2023-04-29T03:50:53;14.30;99.90
2212;DHT22;48849;48.758;9.158;2023-04-29T03:57:12;14.30;99.90
2212;DHT22;48849;48.758;9.158;2023-04-29T04:00:18;14.30;99.90
2212;DHT22;48849;48.758;9.158;2023-04-29T04:06:30;14.30;99.90
2212;DHT22;48849;48.758;9.158;2023-04-29T04:09:11;14.30;99.90
2212;DHT22;48849;48.758;9.158;2023-04-29T04:11:59;14.20;99.90
2212;DHT22;48849;48.758;9.158;2023-04-29T04:15:00;14.20;99.90
2212;DHT22;48849;48.758;9.158;2023-04-29T04:17:38;14.20;99.90
2212;DHT22;48849;48.758;9.158;2023-04-29T04:20:11;14.30;99.90
2212;DHT22;48849;48.758;9.158;2023-04-29T04:23:13;14.20;99.90
2212;DHT22;48849;48.758;9.158;2023-04-29T04:26:02;14.20;99.90
2212;DHT22;48849;48.758;9.158;2023-04-29T04:28:40;14.20;99.90
2212;DHT22;48849;48.758;9.158;2023-04-29T04:31:26;14.20;99.90
2212;DHT22;48849;48.758;9.158;2023-04-29T04:34:05;14.20;99.90
2212;DHT22;48849;48.758;9.158;2023-04-29T04:39:37;14.10;99.90
2212;DHT22;48849;48.758;9.158;2023-04-29T04:42:30;14.10;99.90
2212;DHT22;48849;48.758;9.158;2023-04-29T04:45:27;14.10;99.90
2212;DHT22;48849;48.758;9.158;2023-04-29T04:51:21;14.00;99.90
2212;DHT22;48849;48.758;9.158;2023-04-29T04:54:04;14.00;99.90
2212;DHT22;48849;48.758;9.158;2023-04-29T04:56:40;14.00;99.90
2212;DHT22;48849;48.758;9.158;2023-04-29T04:59:23;14.00;99.90
2212;DHT22;48849;48.758;9.158;2023-04-29T05:01:54;14.00;99.90
2212;DHT22;48849;48.758;9.158;2023-04-29T05:04:25;14.00;99.90
2212;DHT22;48849;48.758;9.158;2023-04-29T05:06:57;14.00;99.90
2212;DHT22;48849;48.758;9.158;2023-04-29T05:09:26;14.00;99.90
2212;DHT22;48849;48.758;9.158;2023-04-29T05:11:57;14.00;99.90
2212;DHT22;48849;48.758;9.158;2023-04-29T05:14:27;14.00;99.90
2212;DHT22;48849;48.758;9.158;2023-04-29T05:17:03;14.00;99.90
2212;DHT22;48849;48.758;9.158;2023-04-29T05:19:34;14.10;99.90
2212;DHT22;48849;48.758;9.158;2023-04-29T05:22:08;14.00;99.90
2212;DHT22;48849;48.758;9.158;2023-04-29T05:24:40;14.10;99.90
2212;DHT22;48849;48.758;9.158;2023-04-29T05:27:24;14.10;99.90
2212;DHT22;48849;48.758;9.158;2023-04-29T05:30:10;14.10;99.90
2212;DHT22;48849;48.758;9.158;2023-04-29T05:32:46;14.10;99.90
2212;DHT22;48849;48.758;9.158;2023-04-29T05:35:13;14.10;99.90
2212;DHT22;48849;48.758;9.158;2023-04-29T05:37:47;14.10;99.90
2212;DHT22;48849;48.758;9.158;2023-04-29T05:40:26;14.10;99.90
2212;DHT22;48849;48.758;9.158;2023-04-29T05:43:04;14.10;99.90
2212;DHT22;48849;48.758;9.158;2023-04-29T05:45:34;14.10;99.90
2212;DHT22;48849;48.758;9.158;2023-04-29T05:48:08;14.20;99.90
2212;DHT22;48849;48.758;9.158;2023-04-29T05:50:43;14.20;99.90
2212;DHT22;48849;48.758;9.158;2023-04-29T05:53:17;14.20;99.90
2212;DHT22;48849;48.758;9.158;2023-04-29T05:55:51;14.20;99.90
2212;DHT22;48849;48.758;9.158;2023-04-29T05:59:09;14.30;99.90
2212;DHT22;48849;48.758;9.158;2023-04-29T06:01:50;14.30;99.90
2212;DHT22;48849;48.758;9.158;2023-04-29T06:04:21;14.40;99.90
2212;DHT22;48849;48.758;9.158;2023-04-29T06:07:37;14.40;99.90
2212;DHT22;48849;48.758;9.158;2023-04-29T06:11:02;14.30;99.90
2212;DHT22;48849;48.758;9.158;2023-04-29T06:13:53;14.40;99.90
2212;DHT22;48849;48.758;9.158;2023-04-29T06:16:37;14.40;99.90
2212;DHT22;48849;48.758;9.158;2023-04-29T06:19:36;14.40;99.90
2212;DHT22;48849;48.758;9.158;2023-04-29T06:29:24;14.60;99.90
2212;DHT22;48849;48.758;9.158;2023-04-29T06:32:31;14.60;99.90
2212;DHT22;48849;48.758;9.158;2023-04-29T06:39:15;14.70;99.90
2212;DHT22;48849;48.758;9.158;2023-04-29T06:46:00;14.70;99.90
2212;DHT22;48849;48.758;9.158;2023-04-29T06:48:57;14.70;99.90
2212;DHT22;48849;48.758;9.158;2023-04-29T06:51:45;14.70;99.90
2212;DHT22;48849;48.758;9.158;2023-04-29T06:54:28;14.70;99.90
2212;DHT22;48849;48.758;9.158;2023-04-29T06:57:05;14.80;99.90
2212;DHT22;48849;48.758;9.158;2023-04-29T06:59:40;14.80;99.90
2212;DHT22;48849;48.758;9.158;2023-04-29T07:02:20;14.80;99.90
2212;DHT22;48849;48.758;9.158;2023-04-29T07:05:05;14.80;99.90
2212;DHT22;48849;48.758;9.158;2023-04-29T07:07:50;14.90;99.90
2212;DHT22;48849;48.758;9.158;2023-04-29T07:10:22;14.90;99.90
2212;DHT22;48849;48.758;9.158;2023-04-29T07:12:56;14.90;99.90
2212;DHT22;48849;48.758;9.158;2023-04-29T07:15:50;15.10;99.90
2212;DHT22;48849;48.758;9.158;2023-04-29T07:19:05;15.00;99.90
2212;DHT22;48849;48.758;9.158;2023-04-29T07:21:50;15.10;99.90
2212;DHT22;48849;48.758;9.158;2023-04-29T07:24:18;15.10;99.90
2212;DHT22;48849;48.758;9.158;2023-04-29T07:26:52;15.10;99.90
2212;DHT22;48849;48.758;9.158;2023-04-29T07:29:19;15.10;99.90
2212;DHT22;48849;48.758;9.158;2023-04-29T07:31:46;15.10;99.90
2212;DHT22;48849;48.758;9.158;2023-04-29T07:34:18;15.10;99.90
2212;DHT22;48849;48.758;9.158;2023-04-29T07:36:45;15.20;99.90
2212;DHT22;48849;48.758;9.158;2023-04-29T07:39:11;15.20;99.90
2212;DHT22;48849;48.758;9.158;2023-04-29T07:41:39;15.20;99.90
2212;DHT22;48849;48.758;9.158;2023-04-29T07:44:06;15.20;99.90
2212;DHT22;48849;48.758;9.158;2023-04-29T07:46:36;15.10;99.90
2212;DHT22;48849;48.758;9.158;2023-04-29T07:49:03;15.10;99.90
2212;DHT22;48849;48.758;9.158;2023-04-29T07:51:32;15.30;99.90
2212;DHT22;48849;48.758;9.158;2023-04-29T07:53:59;15.20;99.90
2212;DHT22;48849;48.758;9.158;2023-04-29T07:56:26;15.20;99.90
2212;DHT22;48849;48.758;9.158;2023-04-29T07:58:53;15.20;99.90
2212;DHT22;48849;48.758;9.158;2023-04-29T08:01:20;15.30;99.90
2212;DHT22;48849;48.758;9.158;2023-04-29T08:03:47;15.30;99.90
2212;DHT22;48849;48.758;9.158;2023-04-29T08:06:14;15.30;99.90
2212;DHT22;48849;48.758;9.158;2023-04-29T08:08:43;15.30;99.90
2212;DHT22;48849;48.758;9.158;2023-04-29T08:11:15;15.30;99.90
2212;DHT22;48849;48.758;9.158;2023-04-29T08:13:43;15.30;99.90
2212;DHT22;48849;48.758;9.158;2023-04-29T08:16:10;15.40;99.90
2212;DHT22;48849;48.758;9.158;2023-04-29T08:18:37;15.40;99.90
2212;DHT22;48849;48.758;9.158;2023-04-29T08:21:04;15.50;99.90
2212;DHT22;48849;48.758;9.158;2023-04-29T08:23:31;15.40;99.90
2212;DHT22;48849;48.758;9.158;2023-04-29T08:26:00;15.50;99.90
2212;DHT22;48849;48.758;9.158;2023-04-29T08:28:27;15.60;99.90
2212;DHT22;48849;48.758;9.158;2023-04-29T08:30:54;15.60;99.90
2212;DHT22;48849;48.758;9.158;2023-04-29T08:33:21;15.60;99.90
2212;DHT22;48849;48.758;9.158;2023-04-29T08:35:48;15.60;99.90
2212;DHT22;48849;48.758;9.158;2023-04-29T08:38:15;15.70;99.90
2212;DHT22;48849;48.758;9.158;2023-04-29T08:40:43;15.70;99.90
2212;DHT22;48849;48.758;9.158;2023-04-29T08:43:13;15.70;99.90
2212;DHT22;48849;48.758;9.158;2023-04-29T08:45:40;15.70;99.90
2212;DHT22;48849;48.758;9.158;2023-04-29T08:48:08;15.70;99.90
2212;DHT22;48849;48.758;9.158;2023-04-29T08:50:37;15.60;99.90
2212;DHT22;48849;48.758;9.158;2023-04-29T08:53:05;15.60;99.90
2212;DHT22;48849;48.758;9.158;2023-04-29T08:55:34;15.60;99.90
2212;DHT22;48849;48.758;9.158;2023-04-29T08:58:01;15.50;99.90
2212;DHT22;48849;48.758;9.158;2023-04-29T09:00:31;15.50;99.90
2212;DHT22;48849;48.758;9.158;2023-04-29T09:03:00;15.50;99.90
2212;DHT22;48849;48.758;9.158;2023-04-29T09:05:31;15.50;99.90
2212;DHT22;48849;48.758;9.158;2023-04-29T09:08:01;15.50;99.90
2212;DHT22;48849;48.758;9.158;2023-04-29T09:10:29;15.50;99.90
2212;DHT22;48849;48.758;9.158;2023-04-29T09:12:56;15.50;99.90
2212;DHT22;48849;48.758;9.158;2023-04-29T09:15:23;15.50;99.90
2212;DHT22;48849;48.758;9.158;2023-04-29T09:17:52;15.50;99.90
2212;DHT22;48849;48.758;9.158;2023-04-29T09:20:26;15.40;99.90
2212;DHT22;48849;48.758;9.158;2023-04-29T09:22:55;15.50;99.90
2212;DHT22;48849;48.758;9.158;2023-04-29T09:25:22;15.50;99.90
2212;DHT22;48849;48.758;9.158;2023-04-29T09:27:49;15.50;99.90
2212;DHT22;48849;48.758;9.158;2023-04-29T09:30:16;15.40;99.90
2212;DHT22;48849;48.758;9.158;2023-04-29T09:32:44;15.50;99.90
2212;DHT22;48849;48.758;9.158;2023-04-29T09:35:23;15.50;99.90
2212;DHT22;48849;48.758;9.158;2023-04-29T09:37:50;15.60;99.90
2212;DHT22;48849;48.758;9.158;2023-04-29T09:40:27;15.50;99.90
2212;DHT22;48849;48.758;9.158;2023-04-29T09:42:56;15.60;99.90
2212;DHT22;48849;48.758;9.158;2023-04-29T09:45:33;15.60;99.90
2212;DHT22;48849;48.758;9.158;2023-04-29T09:48:01;15.60;99.90
2212;DHT22;48849;48.758;9.158;2023-04-29T09:50:30;15.60;99.90
2212;DHT22;48849;48.758;9.158;2023-04-29T09:52:58;15.70;99.90
2212;DHT22;48849;48.758;9.158;2023-04-29T09:55:25;15.80;99.90
2212;DHT22;48849;48.758;9.158;2023-04-29T09:57:52;15.70;99.90
2212;DHT22;48849;48.758;9.158;2023-04-29T10:00:19;15.70;99.90
2212;DHT22;48849;48.758;9.158;2023-04-29T10:02:46;15.80;99.90
2212;DHT22;48849;48.758;9.158;2023-04-29T10:05:14;15.90;99.90
2212;DHT22;48849;48.758;9.158;2023-04-29T10:07:44;15.90;99.90
2212;DHT22;48849;48.758;9.158;2023-04-29T10:10:11;15.90;99.90
2212;DHT22;48849;48.758;9.158;2023-04-29T10:12:39;15.90;99.90
2212;DHT22;48849;48.758;9.158;2023-04-29T10:15:15;16.00;99.90
2212;DHT22;48849;48.758;9.158;2023-04-29T10:17:45;16.00;99.90
2212;DHT22;48849;48.758;9.158;2023-04-29T10:20:21;16.00;99.90
2212;DHT22;48849;48.758;9.158;2023-04-29T10:22:51;16.10;99.90
2212;DHT22;48849;48.758;9.158;2023-04-29T10:25:20;16.10;99.90
2212;DHT22;48849;48.758;9.158;2023-04-29T10:27:48;16.10;99.90
2212;DHT22;48849;48.758;9.158;2023-04-29T10:30:18;16.20;99.90
2212;DHT22;48849;48.758;9.158;2023-04-29T10:32:47;16.10;99.90
2212;DHT22;48849;48.758;9.158;2023-04-29T10:35:16;16.10;99.90
2212;DHT22;48849;48.758;9.158;2023-04-29T10:37:45;16.10;99.90
2212;DHT22;48849;48.758;9.158;2023-04-29T10:40:15;16.20;99.90
2212;DHT22;48849;48.758;9.158;2023-04-29T10:42:46;16.20;99.90
2212;DHT22;48849;48.758;9.158;2023-04-29T10:45:21;16.30;99.90
2212;DHT22;48849;48.758;9.158;2023-04-29T10:48:13;16.30;99.90
2212;DHT22;48849;48.758;9.158;2023-04-29T10:51:01;16.30;99.90
2212;DHT22;48849;48.758;9.158;2023-04-29T10:53:29;16.30;99.90
2212;DHT22;48849;48.758;9.158;2023-04-29T10:56:02;16.30;99.90
2212;DHT22;48849;48.758;9.158;2023-04-29T10:58:50;16.40;99.90
2212;DHT22;48849;48.758;9.158;2023-04-29T11:01:17;16.40;99.90
2212;DHT22;48849;48.758;9.158;2023-04-29T11:03:45;16.40;99.90
2212;DHT22;48849;48.758;9.158;2023-04-29T11:06:12;16.50;99.90
2212;DHT22;48849;48.758;9.158;2023-04-29T11:08:40;16.50;99.90
2212;DHT22;48849;48.758;9.158;2023-04-29T11:11:09;16.60;99.90
2212;DHT22;48849;48.758;9.158;2023-04-29T11:13:38;16.70;99.90
2212;DHT22;48849;48.758;9.158;2023-04-29T11:16:06;16.80;99.90
2212;DHT22;48849;48.758;9.158;2023-04-29T11:18:34;16.80;99.90
2212;DHT22;48849;48.758;9.158;2023-04-29T11:21:11;16.90;99.90
2212;DHT22;48849;48.758;9.158;2023-04-29T11:23:38;16.80;99.90
2212;DHT22;48849;48.758;9.158;2023-04-29T11:26:07;16.80;99.90
2212;DHT22;48849;48.758;9.158;2023-04-29T11:28:35;16.70;99.90
2212;DHT22;48849;48.758;9.158;2023-04-29T11:31:03;16.80;99.90
2212;DHT22;48849;48.758;9.158;2023-04-29T11:33:31;16.80;99.90
2212;DHT22;48849;48.758;9.158;2023-04-29T11:35:59;16.70;99.90
2212;DHT22;48849;48.758;9.158;2023-04-29T11:38:26;16.80;99.90
2212;DHT22;48849;48.758;9.158;2023-04-29T11:40:54;16.80;99.90
2212;DHT22;48849;48.758;9.158;2023-04-29T11:43:24;16.80;99.90
2212;DHT22;48849;48.758;9.158;2023-04-29T11:45:55;16.90;99.90
2212;DHT22;48849;48.758;9.158;2023-04-29T11:48:23;17.00;99.90
2212;DHT22;48849;48.758;9.158;2023-04-29T11:50:52;17.10;99.90
2212;DHT22;48849;48.758;9.158;2023-04-29T11:53:20;17.30;99.90
2212;DHT22;48849;48.758;9.158;2023-04-29T11:55:47;17.50;99.90
2212;DHT22;48849;48.758;9.158;2023-04-29T11:58:14;17.70;99.90
2212;DHT22;48849;48.758;9.158;2023-04-29T12:00:41;17.80;99.90
2212;DHT22;48849;48.758;9.158;2023-04-29T12:03:14;18.00;99.90
2212;DHT22;48849;48.758;9.158;2023-04-29T12:05:45;18.30;99.90
2212;DHT22;48849;48.758;9.158;2023-04-29T12:08:12;18.40;99.90
2212;DHT22;48849;48.758;9.158;2023-04-29T12:10:40;18.40;99.90
2212;DHT22;48849;48.758;9.158;2023-04-29T12:13:07;18.40;99.90
2212;DHT22;48849;48.758;9.158;2023-04-29T12:15:34;18.40;99.90
2212;DHT22;48849;48.758;9.158;2023-04-29T12:18:01;18.50;99.90
2212;DHT22;48849;48.758;9.158;2023-04-29T12:20:29;18.70;99.90
2212;DHT22;48849;48.758;9.158;2023-04-29T12:23:10;18.80;99.90
2212;DHT22;48849;48.758;9.158;2023-04-29T12:25:37;18.90;99.90
2212;DHT22;48849;48.758;9.158;2023-04-29T12:28:05;18.90;99.90
2212;DHT22;48849;48.758;9.158;2023-04-29T12:30:37;19.00;99.90
2212;DHT22;48849;48.758;9.158;2023-04-29T12:33:03;19.10;99.90
2212;DHT22;48849;48.758;9.158;2023-04-29T12:35:32;19.20;99.90
2212;DHT22;48849;48.758;9.158;2023-04-29T12:37:59;19.20;99.90
2212;DHT22;48849;48.758;9.158;2023-04-29T12:40:26;19.10;99.90
2212;DHT22;48849;48.758;9.158;2023-04-29T12:42:53;19.10;99.90
2212;DHT22;48849;48.758;9.158;2023-04-29T12:45:28;19.20;99.90
2212;DHT22;48849;48.758;9.158;2023-04-29T12:47:56;19.30;99.90
2212;DHT22;48849;48.758;9.158;2023-04-29T12:50:33;19.50;99.90
2212;DHT22;48849;48.758;9.158;2023-04-29T12:53:01;19.70;99.90
2212;DHT22;48849;48.758;9.158;2023-04-29T12:55:30;19.90;99.90
2212;DHT22;48849;48.758;9.158;2023-04-29T12:57:57;20.00;99.90
2212;DHT22;48849;48.758;9.158;2023-04-29T13:00:46;20.00;99.90
2212;DHT22;48849;48.758;9.158;2023-04-29T13:03:47;19.90;99.90
2212;DHT22;48849;48.758;9.158;2023-04-29T13:10:07;20.00;99.90
2212;DHT22;48849;48.758;9.158;2023-04-29T13:12:36;19.90;99.90
2212;DHT22;48849;48.758;9.158;2023-04-29T13:15:04;19.90;99.90
2212;DHT22;48849;48.758;9.158;2023-04-29T13:20:49;19.70;99.90
2212;DHT22;48849;48.758;9.158;2023-04-29T13:23:17;19.60;99.90
2212;DHT22;48849;48.758;9.158;2023-04-29T13:25:46;19.50;99.90
2212;DHT22;48849;48.758;9.158;2023-04-29T13:28:15;19.50;99.90
2212;DHT22;48849;48.758;9.158;2023-04-29T13:30:42;19.50;99.90
2212;DHT22;48849;48.758;9.158;2023-04-29T13:33:08;19.60;99.90
2212;DHT22;48849;48.758;9.158;2023-04-29T13:35:36;20.30;99.90
2212;DHT22;48849;48.758;9.158;2023-04-29T13:38:02;21.70;99.90
2212;DHT22;48849;48.758;9.158;2023-04-29T13:40:29;22.90;99.90
2212;DHT22;48849;48.758;9.158;2023-04-29T13:42:58;23.50;99.90
2212;DHT22;48849;48.758;9.158;2023-04-29T13:45:47;25.10;99.90
2212;DHT22;48849;48.758;9.158;2023-04-29T13:51:19;28.30;99.90
2212;DHT22;48849;48.758;9.158;2023-04-29T13:53:45;29.20;99.90
2212;DHT22;48849;48.758;9.158;2023-04-29T13:56:12;29.20;99.90
2212;DHT22;48849;48.758;9.158;2023-04-29T13:58:48;28.20;99.90
2212;DHT22;48849;48.758;9.158;2023-04-29T14:01:23;26.90;99.90
2212;DHT22;48849;48.758;9.158;2023-04-29T14:04:01;25.70;99.90
2212;DHT22;48849;48.758;9.158;2023-04-29T14:06:28;24.60;99.90
2212;DHT22;48849;48.758;9.158;2023-04-29T14:08:56;23.70;99.90
2212;DHT22;48849;48.758;9.158;2023-04-29T14:11:23;22.90;99.90
2212;DHT22;48849;48.758;9.158;2023-04-29T14:13:58;22.30;99.90
2212;DHT22;48849;48.758;9.158;2023-04-29T14:16:28;21.70;99.90
2212;DHT22;48849;48.758;9.158;2023-04-29T14:18:55;21.20;99.90
2212;DHT22;48849;48.758;9.158;2023-04-29T14:21:21;20.80;99.90
2212;DHT22;48849;48.758;9.158;2023-04-29T14:23:48;20.40;99.90
2212;DHT22;48849;48.758;9.158;2023-04-29T14:26:15;20.10;99.90
2212;DHT22;48849;48.758;9.158;2023-04-29T14:28:42;19.90;99.90
2212;DHT22;48849;48.758;9.158;2023-04-29T14:31:10;19.70;99.90
2212;DHT22;48849;48.758;9.158;2023-04-29T14:33:38;19.50;99.90
2212;DHT22;48849;48.758;9.158;2023-04-29T14:36:05;19.30;99.90
2212;DHT22;48849;48.758;9.158;2023-04-29T14:38:32;19.20;99.90
2212;DHT22;48849;48.758;9.158;2023-04-29T14:40:59;19.10;99.90
2212;DHT22;48849;48.758;9.158;2023-04-29T14:43:26;19.00;99.90
2212;DHT22;48849;48.758;9.158;2023-04-29T14:45:53;18.90;99.90
2212;DHT22;48849;48.758;9.158;2023-04-29T14:48:22;18.80;99.90
2212;DHT22;48849;48.758;9.158;2023-04-29T14:50:49;18.70;99.90
2212;DHT22;48849;48.758;9.158;2023-04-29T14:53:18;18.70;99.90
2212;DHT22;48849;48.758;9.158;2023-04-29T14:55:56;18.50;99.90
2212;DHT22;48849;48.758;9.158;2023-04-29T14:58:26;18.50;99.90
2212;DHT22;48849;48.758;9.158;2023-04-29T15:00:52;18.40;99.90
2212;DHT22;48849;48.758;9.158;2023-04-29T15:03:23;18.40;99.90
2212;DHT22;48849;48.758;9.158;2023-04-29T15:05:50;18.30;99.90
2212;DHT22;48849;48.758;9.158;2023-04-29T15:08:17;18.30;99.90
2212;DHT22;48849;48.758;9.158;2023-04-29T15:10:44;18.30;99.90
2212;DHT22;48849;48.758;9.158;2023-04-29T15:13:11;18.20;99.90
2212;DHT22;48849;48.758;9.158;2023-04-29T15:15:38;18.20;99.90
2212;DHT22;48849;48.758;9.158;2023-04-29T15:18:05;18.10;99.90
2212;DHT22;48849;48.758;9.158;2023-04-29T15:20:34;18.10;99.90
2212;DHT22;48849;48.758;9.158;2023-04-29T15:23:06;18.10;99.90
2212;DHT22;48849;48.758;9.158;2023-04-29T15:25:38;18.10;99.90
2212;DHT22;48849;48.758;9.158;2023-04-29T15:28:07;18.10;99.90
2212;DHT22;48849;48.758;9.158;2023-04-29T15:30:37;18.00;99.90
2212;DHT22;48849;48.758;9.158;2023-04-29T15:33:11;18.00;99.90
2212;DHT22;48849;48.758;9.158;2023-04-29T15:35:43;17.90;99.90
2212;DHT22;48849;48.758;9.158;2023-04-29T15:38:24;17.90;99.90
2212;DHT22;48849;48.758;9.158;2023-04-29T15:44:18;17.90;99.90
2212;DHT22;48849;48.758;9.158;2023-04-29T15:46:55;17.90;99.90
2212;DHT22;48849;48.758;9.158;2023-04-29T15:52:36;17.70;99.90
2212;DHT22;48849;48.758;9.158;2023-04-29T15:55:03;17.70;99.90
2212;DHT22;48849;48.758;9.158;2023-04-29T15:57:33;17.70;99.90
2212;DHT22;48849;48.758;9.158;2023-04-29T16:00:06;17.70;99.90
2212;DHT22;48849;48.758;9.158;2023-04-29T16:02:34;17.70;99.90
2212;DHT22;48849;48.758;9.158;2023-04-29T16:05:06;17.70;99.90
2212;DHT22;48849;48.758;9.158;2023-04-29T16:07:49;17.70;99.90
2212;DHT22;48849;48.758;9.158;2023-04-29T16:10:16;17.60;99.90
2212;DHT22;48849;48.758;9.158;2023-04-29T16:12:48;17.60;99.90
2212;DHT22;48849;48.758;9.158;2023-04-29T16:15:25;17.60;99.90
2212;DHT22;48849;48.758;9.158;2023-04-29T16:17:55;17.50;99.90
2212;DHT22;48849;48.758;9.158;2023-04-29T16:20:21;17.50;99.90
2212;DHT22;48849;48.758;9.158;2023-04-29T16:22:51;17.50;99.90
2212;DHT22;48849;48.758;9.158;2023-04-29T16:25:18;17.40;99.90
2212;DHT22;48849;48.758;9.158;2023-04-29T16:27:45;17.40;99.90
2212;DHT22;48849;48.758;9.158;2023-04-29T16:30:12;17.40;99.90
2212;DHT22;48849;48.758;9.158;2023-04-29T16:32:39;17.40;99.90
2212;DHT22;48849;48.758;9.158;2023-04-29T16:35:08;17.40;99.90
2212;DHT22;48849;48.758;9.158;2023-04-29T16:37:35;17.40;99.90
2212;DHT22;48849;48.758;9.158;2023-04-29T16:40:05;17.40;99.90
2212;DHT22;48849;48.758;9.158;2023-04-29T16:42:32;17.30;99.90
2212;DHT22;48849;48.758;9.158;2023-04-29T16:44:59;17.30;99.90
2212;DHT22;48849;48.758;9.158;2023-04-29T16:47:26;17.30;99.90
2212;DHT22;48849;48.758;9.158;2023-04-29T16:49:53;17.30;99.90
2212;DHT22;48849;48.758;9.158;2023-04-29T16:52:20;17.20;99.90
2212;DHT22;48849;48.758;9.158;2023-04-29T16:54:47;17.20;99.90
2212;DHT22;48849;48.758;9.158;2023-04-29T16:57:16;17.30;99.90
2212;DHT22;48849;48.758;9.158;2023-04-29T16:59:45;17.10;99.90
2212;DHT22;48849;48.758;9.158;2023-04-29T17:02:12;17.10;99.90
2212;DHT22;48849;48.758;9.158;2023-04-29T17:04:39;17.10;99.90
2212;DHT22;48849;48.758;9.158;2023-04-29T17:07:06;17.10;99.90
2212;DHT22;48849;48.758;9.158;2023-04-29T17:09:33;17.10;99.90
2212;DHT22;48849;48.758;9.158;2023-04-29T17:12:00;17.10;99.90
2212;DHT22;48849;48.758;9.158;2023-04-29T17:14:30;17.00;99.90
2212;DHT22;48849;48.758;9.158;2023-04-29T17:16:56;17.00;99.90
2212;DHT22;48849;48.758;9.158;2023-04-29T17:19:23;17.00;99.90
2212;DHT22;48849;48.758;9.158;2023-04-29T17:21:50;17.10;99.90
2212;DHT22;48849;48.758;9.158;2023-04-29T17:24:17;17.00;99.90